Terminal Aerodrome Forecast
Issued by NWS

Home | Current Version | Previous Version | Text Only | Print | Product List | Glossary On
Versions: 1 2 3 4 5 6 7 8 9 10 11 12 13 14 15 16 17 18 19 20 21 22 23 24 25 26 27 28
000
FTUS45 KGJT 221735
TAFRIL
TAF
KRIL 221735Z 2218/2318 VRB04KT P6SM SCT200
     FM222000 23008KT P6SM SCT100 BKN150
     FM230200 13005KT P6SM BKN120
     FM231100 VRB03KT P6SM SCT100=

USA.gov is the U.S. government's official web portal to all federal, state and local government web resources and services.